Terminal Aerodrome Forecast
Issued by NWS

Home | Current Version | Previous Version | Text Only | Print | Product List | Glossary On
Versions: 1 2 3 4 5 6 7 8 9 10 11 12
437
FTUS45 KRIW 271128
TAFRKS
TAF
KRKS 271128Z 2712/2812 21011KT P6SM SCT100
     FM271700 27015G25KT P6SM SCT100 BKN130
     FM272000 28020G32KT P6SM SCT100
     FM280200 30012KT P6SM SCT100
     FM280800 05011KT P6SM FEW100=

USA.gov is the U.S. government's official web portal to all federal, state and local government web resources and services.